createdAt,value
2016-04-05T00:00:59.155Z,0
2016-04-05T00:01:59.079Z,0
2016-04-05T00:02:59.019Z,0
2016-04-05T00:03:58.991Z,0
2016-04-05T00:04:58.932Z,0
2016-04-05T00:05:58.887Z,0
2016-04-05T00:06:58.844Z,0
2016-04-05T00:07:58.783Z,0
2016-04-05T00:08:58.708Z,0
2016-04-05T00:09:57.929Z,0
2016-04-05T00:10:58.651Z,0
2016-04-05T00:11:58.576Z,0
2016-04-05T00:12:58.515Z,0
2016-04-05T00:13:58.471Z,0
2016-04-05T00:14:58.411Z,0
2016-04-05T00:15:58.382Z,0
2016-04-05T00:16:58.339Z,0
2016-04-05T00:17:58.278Z,0
2016-04-05T00:18:58.235Z,0
2016-04-05T00:20:00.597Z,0
2016-04-05T00:20:58.131Z,0
2016-04-05T00:21:58.071Z,0
2016-04-05T00:22:58.042Z,0
2016-04-05T00:23:57.967Z,0
2016-04-05T00:24:57.969Z,0
2016-04-05T00:25:57.878Z,0
2016-04-05T00:26:57.834Z,0
2016-04-05T00:27:57.790Z,0
2016-04-05T00:28:57.731Z,0
2016-04-05T00:29:57.670Z,0
2016-04-05T00:30:57.627Z,0
2016-04-05T00:31:57.567Z,0
2016-04-05T00:32:57.523Z,0
2016-04-05T00:33:57.478Z,0
2016-04-05T00:34:57.419Z,0
2016-04-05T00:35:57.374Z,0
2016-04-05T00:36:57.330Z,0
2016-04-05T00:37:57.301Z,0
2016-04-05T00:38:57.226Z,0
2016-04-05T00:39:57.166Z,0
2016-04-05T00:40:57.138Z,0
2016-04-05T00:41:57.141Z,0
2016-04-05T00:42:57.018Z,0
2016-04-05T00:43:56.958Z,0
2016-04-05T00:44:56.929Z,0
2016-04-05T00:45:56.870Z,0
2016-04-05T00:46:56.810Z,0
2016-04-05T00:47:56.750Z,0
2016-04-05T00:48:56.706Z,0
2016-04-05T00:49:56.661Z,0
2016-04-05T00:50:56.617Z,0
2016-04-05T00:51:56.573Z,0
2016-04-05T00:52:56.528Z,0
2016-04-05T00:53:56.470Z,0
2016-04-05T00:54:56.394Z,0
2016-04-05T00:55:56.381Z,0
2016-04-05T00:56:56.322Z,0
2016-04-05T00:57:56.277Z,0
2016-04-05T00:58:56.233Z,0
2016-04-05T00:59:56.141Z,0
2016-04-05T01:00:56.097Z,0
2016-04-05T01:01:56.069Z,0
2016-04-05T01:02:56.009Z,0
2016-04-05T01:03:55.950Z,0
2016-04-05T01:04:55.922Z,0
2016-04-05T01:05:55.877Z,0
2016-04-05T01:06:55.802Z,0
2016-04-05T01:07:55.757Z,0
2016-04-05T01:08:55.713Z,0
2016-04-05T01:09:55.638Z,0
2016-04-05T01:10:55.609Z,0
2016-04-05T01:11:55.565Z,0
2016-04-05T01:12:55.489Z,0
2016-04-05T01:13:55.445Z,0
2016-04-05T01:14:55.416Z,0
2016-04-05T01:15:55.325Z,0
2016-04-05T01:16:55.328Z,0
2016-04-05T01:17:55.221Z,0
2016-04-05T01:18:55.193Z,0
2016-04-05T01:19:55.134Z,0
2016-04-05T01:20:55.089Z,0
2016-04-05T01:21:55.029Z,0
2016-04-05T01:22:54.984Z,0
2016-04-05T01:23:54.956Z,0
2016-04-05T01:24:54.131Z,0
2016-04-05T01:25:54.820Z,0
2016-04-05T01:26:54.980Z,0
2016-04-05T01:27:54.733Z,0
2016-04-05T01:28:54.657Z,0
2016-04-05T01:29:54.644Z,0
2016-04-05T01:30:54.569Z,0
2016-04-05T01:31:54.525Z,0
2016-04-05T01:32:58.481Z,0
2016-04-05T01:33:54.452Z,0
2016-04-05T01:34:54.377Z,0
2016-04-05T01:35:54.332Z,0
2016-04-05T01:36:54.272Z,0
2016-04-05T01:37:54.213Z,0
2016-04-05T01:38:54.199Z,0
2016-04-05T01:39:54.125Z,0
2016-04-05T01:40:54.080Z,0
2016-04-05T01:41:54.036Z,0
2016-04-05T01:42:53.961Z,0
2016-04-05T01:43:53.916Z,0
2016-04-05T01:44:53.919Z,0
2016-04-05T01:45:53.912Z,0
2016-04-05T01:46:53.780Z,0
2016-04-05T01:47:53.704Z,0
2016-04-05T01:48:55.532Z,0
2016-04-05T01:49:54.779Z,0
2016-04-05T01:50:53.578Z,0
2016-04-05T01:51:53.503Z,0
2016-04-05T01:52:53.490Z,0
2016-04-05T01:53:53.414Z,0
2016-04-05T01:54:53.340Z,0
2016-04-05T01:55:53.311Z,0
2016-04-05T01:56:53.298Z,0
2016-04-05T01:57:53.191Z,0
2016-04-05T01:58:53.147Z,0
2016-04-05T01:59:52.837Z,0
2016-04-05T02:00:53.059Z,0
2016-04-05T02:01:52.998Z,0
2016-04-05T02:02:52.939Z,0
2016-04-05T02:03:52.911Z,0
2016-04-05T02:04:52.851Z,0
2016-04-05T02:05:52.807Z,0
2016-04-05T02:06:52.747Z,0
2016-04-05T02:07:52.708Z,0
2016-04-05T02:08:52.633Z,0
2016-04-05T02:09:52.603Z,0
2016-04-05T02:10:52.544Z,0
2016-04-05T02:11:52.483Z,0
2016-04-05T02:12:52.440Z,0
2016-04-05T02:13:52.380Z,0
2016-04-05T02:14:52.538Z,0
2016-04-05T02:15:52.323Z,0
2016-04-05T02:16:52.231Z,0
2016-04-05T02:17:52.171Z,0
2016-04-05T02:18:52.112Z,0
2016-04-05T02:19:52.068Z,0
2016-04-05T02:20:52.024Z,0
2016-04-05T02:21:51.964Z,0
2016-04-05T02:22:51.920Z,0
2016-04-05T02:23:51.876Z,0
2016-04-05T02:24:51.815Z,0
2016-04-05T02:25:51.756Z,0
2016-04-05T02:26:51.711Z,0
2016-04-05T02:27:51.636Z,0
2016-04-05T02:28:51.639Z,0
2016-04-05T02:29:51.469Z,0
2016-04-05T02:30:51.504Z,0
2016-04-05T02:31:51.459Z,0
2016-04-05T02:32:51.400Z,0
2016-04-05T02:33:51.339Z,0
2016-04-05T02:34:51.295Z,0
2016-04-05T02:35:51.298Z,0
2016-04-05T02:36:51.192Z,0
2016-04-05T02:37:51.147Z,0
2016-04-05T02:38:50.931Z,0
2016-04-05T02:39:51.043Z,0
2016-04-05T02:40:50.983Z,0
2016-04-05T02:41:50.924Z,0
2016-04-05T02:42:50.895Z,0
2016-04-05T02:43:50.836Z,0
2016-04-05T02:44:51.056Z,0
2016-04-05T02:45:50.702Z,0
2016-04-05T02:46:50.661Z,0
2016-04-05T02:47:50.573Z,0
2016-04-05T02:48:50.547Z,0
2016-04-05T02:49:50.459Z,0
2016-04-05T02:50:50.395Z,0
2016-04-05T02:51:50.362Z,0
2016-04-05T02:52:50.298Z,0
2016-04-05T02:53:50.264Z,0
2016-04-05T02:54:50.185Z,0
2016-04-05T02:55:50.139Z,0
2016-04-05T02:56:50.078Z,0
2016-04-05T02:57:50.016Z,0
2016-04-05T02:58:49.970Z,0
2016-04-05T02:59:49.924Z,0
2016-04-05T03:00:49.862Z,0
2016-04-05T03:01:49.786Z,0
2016-04-05T03:02:49.741Z,0
2016-04-05T03:03:49.712Z,0
2016-04-05T03:04:49.651Z,0
2016-04-05T03:05:49.607Z,0
2016-04-05T03:06:49.531Z,0
2016-04-05T03:07:49.502Z,0
2016-04-05T03:08:49.458Z,0
2016-04-05T03:09:49.368Z,0
2016-04-05T03:10:49.339Z,0
2016-04-05T03:11:49.311Z,0
2016-04-05T03:12:48.501Z,0
2016-04-05T03:13:49.207Z,0
2016-04-05T03:14:49.132Z,0
2016-04-05T03:15:49.071Z,0
2016-04-05T03:16:49.027Z,0
2016-04-05T03:17:48.983Z,0
2016-04-05T03:18:48.923Z,0
2016-04-05T03:19:48.863Z,0
2016-04-05T03:20:48.803Z,0
2016-04-05T03:21:48.790Z,0
2016-04-05T03:22:48.684Z,0
2016-04-05T03:23:48.671Z,0
2016-04-05T03:24:48.611Z,0
2016-04-05T03:25:48.551Z,0
2016-04-05T03:26:48.492Z,0
2016-04-05T03:27:48.448Z,0
2016-04-05T03:28:48.403Z,0
2016-04-05T03:29:48.344Z,0
2016-04-05T03:30:48.284Z,0
2016-04-05T03:31:48.224Z,0
2016-04-05T03:32:48.196Z,0
2016-04-05T03:33:48.136Z,0
2016-04-05T03:34:48.107Z,0
2016-04-05T03:35:48.029Z,0
2016-04-05T03:36:47.953Z,0
2016-04-05T03:37:47.925Z,0
2016-04-05T03:38:47.865Z,0
2016-04-05T03:39:47.806Z,0
2016-04-05T03:40:47.746Z,0
2016-04-05T03:41:47.702Z,0
2016-04-05T03:42:47.641Z,0
2016-04-05T03:43:47.613Z,0
2016-04-05T03:44:47.553Z,0
2016-04-05T03:45:47.494Z,0
2016-04-05T03:46:47.449Z,0
2016-04-05T03:47:47.405Z,0
2016-04-05T03:48:47.346Z,0
2016-04-05T03:49:47.286Z,0
2016-04-05T03:50:47.257Z,0
2016-04-05T03:51:47.166Z,0
2016-04-05T03:52:47.121Z,0
2016-04-05T03:53:47.077Z,0
2016-04-05T03:54:47.049Z,0
2016-04-05T03:55:46.958Z,0
2016-04-05T03:56:46.946Z,0
2016-04-05T03:57:46.854Z,0
2016-04-05T03:58:46.810Z,0
2016-04-05T03:59:46.765Z,0
2016-04-05T04:00:46.721Z,0
2016-04-05T04:01:46.645Z,0
2016-04-05T04:02:46.617Z,0
2016-04-05T04:03:46.558Z,0
2016-04-05T04:04:46.513Z,0
2016-04-05T04:05:46.469Z,0
2016-04-05T04:06:46.394Z,0
2016-04-05T04:07:46.350Z,0
2016-04-05T04:08:46.290Z,0
2016-04-05T04:09:46.245Z,0
2016-04-05T04:10:46.186Z,0
2016-04-05T04:11:46.126Z,0
2016-04-05T04:12:46.114Z,0
2016-04-05T04:13:46.053Z,0
2016-04-05T04:14:45.994Z,0
2016-04-05T04:15:45.933Z,0
2016-04-05T04:16:45.343Z,0
2016-04-05T04:17:45.830Z,0
2016-04-05T04:18:45.769Z,0
2016-04-05T04:19:45.726Z,0
2016-04-05T04:20:45.650Z,0
2016-04-05T04:21:45.621Z,0
2016-04-05T04:22:45.546Z,0
2016-04-05T04:23:45.501Z,0
2016-04-05T04:24:45.457Z,0
2016-04-05T04:25:45.429Z,0
2016-04-05T04:26:45.338Z,0
2016-04-05T04:27:45.263Z,0
2016-04-05T04:28:45.234Z,0
2016-04-05T04:29:45.190Z,0
2016-04-05T04:30:45.130Z,0
2016-04-05T04:31:45.117Z,0
2016-04-05T04:32:45.026Z,0
2016-04-05T04:33:44.998Z,0
2016-04-05T04:34:44.923Z,0
2016-04-05T04:35:44.878Z,0
2016-04-05T04:36:44.833Z,0
2016-04-05T04:37:44.759Z,0
2016-04-05T04:38:44.745Z,0
2016-04-05T04:39:44.655Z,0
2016-04-05T04:40:44.642Z,0
2016-04-05T04:41:44.613Z,0
2016-04-05T04:42:44.491Z,4
2016-04-05T04:43:44.447Z,0
2016-04-05T04:44:44.386Z,0
2016-04-05T04:45:44.374Z,0
2016-04-05T04:46:44.330Z,4
2016-04-05T04:47:44.255Z,0
2016-04-05T04:48:44.179Z,4
2016-04-05T04:49:43.963Z,4
2016-04-05T04:50:44.090Z,0
2016-04-05T04:51:44.046Z,4
2016-04-05T04:52:43.986Z,4
2016-04-05T04:53:43.926Z,4
2016-04-05T04:54:43.852Z,4
2016-04-05T04:55:43.807Z,4
2016-04-05T04:56:43.762Z,4
2016-04-05T04:57:43.735Z,4
2016-04-05T04:58:43.534Z,4
2016-04-05T04:59:43.630Z,4
2016-04-05T05:00:43.539Z,4
2016-04-05T05:01:43.510Z,4
2016-04-05T05:02:43.435Z,8
2016-04-05T05:03:43.406Z,4
2016-04-05T05:04:43.347Z,4
2016-04-05T05:05:43.303Z,8
2016-04-05T05:06:43.242Z,8
2016-04-05T05:07:43.183Z,8
2016-04-05T05:08:42.404Z,8
2016-04-05T05:09:43.079Z,8
2016-04-05T05:10:43.019Z,8
2016-04-05T05:11:42.975Z,8
2016-04-05T05:12:42.931Z,12
2016-04-05T05:13:42.871Z,12
2016-04-05T05:14:42.811Z,12
2016-04-05T05:15:42.767Z,12
2016-04-05T05:16:42.708Z,8
2016-04-05T05:17:42.678Z,16
2016-04-05T05:18:42.618Z,12
2016-04-05T05:19:42.559Z,16
2016-04-05T05:20:42.515Z,16
2016-04-05T05:21:42.454Z,16
2016-04-05T05:22:42.599Z,16
2016-04-05T05:23:42.351Z,16
2016-04-05T05:24:42.291Z,16
2016-04-05T05:25:42.247Z,16
2016-04-05T05:26:42.187Z,20
2016-04-05T05:27:42.112Z,20
2016-04-05T05:28:42.099Z,16
2016-04-05T05:29:42.024Z,20
2016-04-05T05:30:41.979Z,20
2016-04-05T05:31:41.951Z,20
2016-04-05T05:32:41.875Z,24
2016-04-05T05:33:41.815Z,24
2016-04-05T05:34:41.771Z,24
2016-04-05T05:35:41.711Z,28
2016-04-05T05:36:41.667Z,24
2016-04-05T05:37:41.607Z,28
2016-04-05T05:38:41.547Z,24
2016-04-05T05:39:41.504Z,28
2016-04-05T05:40:41.444Z,28
2016-04-05T05:41:41.414Z,28
2016-04-05T05:42:41.356Z,32
2016-04-05T05:43:41.295Z,32
2016-04-05T05:44:41.251Z,32
2016-04-05T05:45:41.192Z,36
2016-04-05T05:46:41.131Z,36
2016-04-05T05:47:41.088Z,36
2016-04-05T05:48:41.043Z,36
2016-04-05T05:49:40.968Z,40
2016-04-05T05:50:40.907Z,48
2016-04-05T05:51:40.894Z,52
2016-04-05T05:52:40.835Z,56
2016-04-05T05:53:40.791Z,60
2016-04-05T05:54:40.700Z,60
2016-04-05T05:55:40.671Z,60
2016-04-05T05:56:40.596Z,56
2016-04-05T05:57:40.552Z,60
2016-04-05T05:58:40.507Z,60
2016-04-05T05:59:40.463Z,60
2016-04-05T06:00:40.388Z,60
2016-04-05T06:01:40.344Z,56
2016-04-05T06:02:40.299Z,60
2016-04-05T06:03:40.255Z,60
2016-04-05T06:04:40.196Z,52
2016-04-05T06:05:40.151Z,40
2016-04-05T06:06:40.091Z,44
2016-04-05T06:07:40.048Z,52
2016-04-05T06:08:39.987Z,52
2016-04-05T06:09:39.943Z,56
2016-04-05T06:10:39.900Z,52
2016-04-05T06:11:39.855Z,52
2016-04-05T06:12:39.795Z,48
2016-04-05T06:13:39.736Z,48
2016-04-05T06:14:39.675Z,44
2016-04-05T06:15:39.475Z,44
2016-04-05T06:16:39.572Z,44
2016-04-05T06:17:39.527Z,44
2016-04-05T06:18:39.467Z,44
2016-04-05T06:19:39.424Z,52
2016-04-05T06:20:39.379Z,56
2016-04-05T06:21:39.335Z,72
2016-04-05T06:22:39.275Z,76
2016-04-05T06:23:39.247Z,80
2016-04-05T06:24:39.016Z,80
2016-04-05T06:25:39.299Z,80
2016-04-05T06:26:39.051Z,80
2016-04-05T06:27:38.992Z,80
2016-04-05T06:28:38.932Z,80
2016-04-05T06:29:38.887Z,80
2016-04-05T06:30:38.875Z,84
2016-04-05T06:31:38.815Z,84
2016-04-05T06:32:38.771Z,80
2016-04-05T06:33:38.711Z,80
2016-04-05T06:34:38.667Z,80
2016-04-05T06:35:38.607Z,80
2016-04-05T06:36:38.562Z,76
2016-04-05T06:37:38.487Z,76
2016-04-05T06:38:38.428Z,76
2016-04-05T06:39:38.368Z,72
2016-04-05T06:40:38.323Z,72
2016-04-05T06:41:38.295Z,68
2016-04-05T06:42:38.251Z,72
2016-04-05T06:43:38.409Z,72
2016-04-05T06:44:38.131Z,72
2016-04-05T06:45:38.087Z,68
2016-04-05T06:46:38.028Z,72
2016-04-05T06:47:37.983Z,68
2016-04-05T06:48:37.938Z,72
2016-04-05T06:49:37.880Z,68
2016-04-05T06:50:37.835Z,72
2016-04-05T06:51:37.775Z,68
2016-04-05T06:52:37.716Z,72
2016-04-05T06:53:37.671Z,68
2016-04-05T06:54:37.643Z,72
2016-04-05T06:55:37.583Z,68
2016-04-05T06:56:37.507Z,68
2016-04-05T06:57:37.463Z,68
2016-04-05T06:58:37.419Z,72
2016-04-05T06:59:37.359Z,72
2016-04-05T07:00:37.315Z,72
2016-04-05T07:01:37.240Z,68
2016-04-05T07:02:37.210Z,68
2016-04-05T07:03:37.151Z,72
2016-04-05T07:04:37.107Z,72
2016-04-05T07:05:37.062Z,76
2016-04-05T07:06:37.050Z,76
2016-04-05T07:07:36.945Z,76
2016-04-05T07:08:36.947Z,76
2016-04-05T07:09:36.856Z,76
2016-04-05T07:10:36.797Z,76
2016-04-05T07:11:36.752Z,76
2016-04-05T07:12:36.708Z,80
2016-04-05T07:13:36.633Z,76
2016-04-05T07:14:36.620Z,76
2016-04-05T07:15:36.435Z,76
2016-04-05T07:16:36.485Z,76
2016-04-05T07:17:36.441Z,76
2016-04-05T07:18:36.381Z,76
2016-04-05T07:19:36.180Z,76
2016-04-05T07:20:36.308Z,76
2016-04-05T07:21:36.280Z,76
2016-04-05T07:22:36.188Z,76
2016-04-05T07:23:36.160Z,76
2016-04-05T07:24:36.132Z,76
2016-04-05T07:25:36.071Z,80
2016-04-05T07:26:36.027Z,80
2016-04-05T07:27:35.967Z,76
2016-04-05T07:28:35.923Z,76
2016-04-05T07:29:35.832Z,80
2016-04-05T07:30:35.787Z,80
2016-04-05T07:31:35.744Z,84
2016-04-05T07:32:35.684Z,80
2016-04-05T07:33:35.655Z,80
2016-04-05T07:34:35.611Z,80
2016-04-05T07:35:35.583Z,80
2016-04-05T07:36:35.507Z,76
2016-04-05T07:37:35.431Z,80
2016-04-05T07:38:35.404Z,80
2016-04-05T07:39:35.328Z,80
2016-04-05T07:40:35.299Z,92
2016-04-05T07:41:35.239Z,92
2016-04-05T07:42:35.195Z,96
2016-04-05T07:43:35.151Z,96
2016-04-05T07:44:35.091Z,92
2016-04-05T07:45:35.110Z,92
2016-04-05T07:46:35.003Z,96
2016-04-05T07:47:34.943Z,96
2016-04-05T07:48:34.899Z,96
2016-04-05T07:49:34.839Z,100
2016-04-05T07:50:34.780Z,100
2016-04-05T07:51:34.735Z,100
2016-04-05T07:52:34.691Z,100
2016-04-05T07:53:34.491Z,96
2016-04-05T07:54:34.571Z,104
2016-04-05T07:55:34.543Z,104
2016-04-05T07:56:34.499Z,104
2016-04-05T07:57:34.423Z,112
2016-04-05T07:58:34.410Z,112
2016-04-05T07:59:34.351Z,112
2016-04-05T08:00:34.306Z,112
2016-04-05T08:01:34.090Z,112
2016-04-05T08:02:34.186Z,108
2016-04-05T08:03:34.127Z,108
2016-04-05T08:04:34.098Z,108
2016-04-05T08:05:34.054Z,104
2016-04-05T08:06:34.010Z,100
2016-04-05T08:07:33.981Z,100
2016-04-05T08:08:33.922Z,108
2016-04-05T08:09:33.846Z,116
2016-04-05T08:10:33.802Z,116
2016-04-05T08:11:33.758Z,116
2016-04-05T08:12:33.682Z,120
2016-04-05T08:13:33.654Z,124
2016-04-05T08:14:33.625Z,128
2016-04-05T08:15:33.550Z,128
2016-04-05T08:16:33.505Z,132
2016-04-05T08:17:33.430Z,132
2016-04-05T08:18:33.402Z,128
2016-04-05T08:19:33.357Z,128
2016-04-05T08:20:33.314Z,132
2016-04-05T08:21:33.253Z,132
2016-04-05T08:22:33.255Z,128
2016-04-05T08:23:33.165Z,132
2016-04-05T08:24:33.104Z,136
2016-04-05T08:25:33.077Z,136
2016-04-05T08:26:33.001Z,144
2016-04-05T08:27:32.957Z,148
2016-04-05T08:28:32.913Z,144
2016-04-05T08:29:32.853Z,152
2016-04-05T08:30:32.840Z,152
2016-04-05T08:31:32.780Z,160
2016-04-05T08:32:32.704Z,164
2016-04-05T08:33:32.676Z,176
2016-04-05T08:34:32.617Z,180
2016-04-05T08:35:32.588Z,180
2016-04-05T08:36:32.528Z,180
2016-04-05T08:37:32.484Z,188
2016-04-05T08:38:32.423Z,188
2016-04-05T08:39:32.395Z,192
2016-04-05T08:40:32.336Z,208
2016-04-05T08:41:32.291Z,208
2016-04-05T08:42:32.076Z,208
2016-04-05T08:43:32.187Z,208
2016-04-05T08:44:32.143Z,200
2016-04-05T08:45:32.083Z,192
2016-04-05T08:46:32.039Z,184
2016-04-05T08:47:32.011Z,200
2016-04-05T08:48:31.950Z,212
2016-04-05T08:49:31.908Z,220
2016-04-05T08:50:31.863Z,216
2016-04-05T08:51:31.818Z,220
2016-04-05T08:52:31.758Z,228
2016-04-05T08:53:31.713Z,244
2016-04-05T08:54:31.671Z,260
2016-04-05T08:55:31.610Z,264
2016-04-05T08:56:31.582Z,276
2016-04-05T08:57:31.538Z,280
2016-04-05T08:58:31.462Z,292
2016-04-05T08:59:31.418Z,300
2016-04-05T09:00:31.374Z,320
2016-04-05T09:01:31.345Z,316
2016-04-05T09:02:31.285Z,308
2016-04-05T09:03:31.257Z,324
2016-04-05T09:04:31.182Z,316
2016-04-05T09:05:31.153Z,308
2016-04-05T09:06:31.109Z,272
2016-04-05T09:07:31.048Z,268
2016-04-05T09:08:31.004Z,280
2016-04-05T09:09:30.950Z,264
2016-04-05T09:10:30.921Z,232
2016-04-05T09:11:30.878Z,248
2016-04-05T09:12:30.848Z,280
2016-04-05T09:13:30.773Z,280
2016-04-05T09:14:30.728Z,240
2016-04-05T09:15:30.669Z,232
2016-04-05T09:16:30.625Z,212
2016-04-05T09:17:30.627Z,216
2016-04-05T09:18:30.536Z,196
2016-04-05T09:19:30.508Z,192
2016-04-05T09:20:30.433Z,192
2016-04-05T09:21:30.404Z,212
2016-04-05T09:22:30.360Z,224
2016-04-05T09:23:30.300Z,220
2016-04-05T09:24:30.287Z,200
2016-04-05T09:25:30.212Z,196
2016-04-05T09:26:30.198Z,184
2016-04-05T09:27:30.124Z,204
2016-04-05T09:28:30.079Z,208
2016-04-05T09:29:30.019Z,204
2016-04-05T09:30:29.975Z,160
2016-04-05T09:31:29.931Z,152
2016-04-05T09:32:29.887Z,140
2016-04-05T09:33:29.826Z,144
2016-04-05T09:34:29.782Z,132
2016-04-05T09:35:29.739Z,132
2016-04-05T09:36:29.695Z,140
2016-04-05T09:37:29.651Z,148
2016-04-05T09:38:29.622Z,176
2016-04-05T09:39:29.546Z,176
2016-04-05T09:40:29.502Z,184
2016-04-05T09:41:29.473Z,192
2016-04-05T09:42:29.413Z,192
2016-04-05T09:43:29.401Z,208
2016-04-05T09:44:29.325Z,216
2016-04-05T09:45:29.280Z,220
2016-04-05T09:46:29.252Z,192
2016-04-05T09:47:29.177Z,180
2016-04-05T09:48:29.132Z,176
2016-04-05T09:49:29.088Z,164
2016-04-05T09:50:29.045Z,164
2016-04-05T09:51:29.000Z,168
2016-04-05T09:52:28.955Z,164
2016-04-05T09:53:28.944Z,160
2016-04-05T09:54:28.883Z,164
2016-04-05T09:55:28.839Z,180
2016-04-05T09:56:28.795Z,196
2016-04-05T09:57:28.735Z,216
2016-04-05T09:58:28.676Z,244
2016-04-05T09:59:28.615Z,264
2016-04-05T10:00:28.571Z,252
2016-04-05T10:01:28.542Z,252
2016-04-05T10:02:28.499Z,252
2016-04-05T10:03:28.439Z,280
2016-04-05T10:04:28.410Z,260
2016-04-05T10:05:28.365Z,260
2016-04-05T10:06:28.322Z,284
2016-04-05T10:07:28.277Z,300
2016-04-05T10:08:28.248Z,276
2016-04-05T10:09:28.173Z,264
2016-04-05T10:10:28.113Z,304
2016-04-05T10:11:28.116Z,324
2016-04-05T10:12:28.088Z,332
2016-04-05T10:13:27.981Z,320
2016-04-05T10:14:27.937Z,316
2016-04-05T10:15:27.878Z,300
2016-04-05T10:16:27.864Z,244
2016-04-05T10:17:27.820Z,200
2016-04-05T10:18:27.761Z,160
2016-04-05T10:19:27.716Z,160
2016-04-05T10:20:27.656Z,148
2016-04-05T10:21:27.612Z,144
2016-04-05T10:22:27.583Z,140
2016-04-05T10:23:27.524Z,152
2016-04-05T10:24:27.495Z,160
2016-04-05T10:25:27.452Z,172
2016-04-05T10:26:27.407Z,184
2016-04-05T10:27:27.332Z,200
2016-04-05T10:28:27.303Z,216
2016-04-05T10:29:27.259Z,228
2016-04-05T10:30:27.230Z,236
2016-04-05T10:31:27.201Z,248
2016-04-05T10:32:27.157Z,268
2016-04-05T10:33:27.098Z,284
2016-04-05T10:34:27.054Z,268
2016-04-05T10:35:27.056Z,292
2016-04-05T10:36:26.949Z,324
2016-04-05T10:37:26.920Z,320
2016-04-05T10:38:26.829Z,288
2016-04-05T10:39:26.801Z,292
2016-04-05T10:40:26.772Z,284
2016-04-05T10:41:26.712Z,312
2016-04-05T10:42:26.669Z,336
2016-04-05T10:43:26.639Z,344
2016-04-05T10:44:26.596Z,352
2016-04-05T10:45:26.536Z,376
2016-04-05T10:46:26.508Z,384
2016-04-05T10:47:26.463Z,364
2016-04-05T10:48:26.403Z,348
2016-04-05T10:49:26.375Z,328
2016-04-05T10:50:26.330Z,348
2016-04-05T10:51:26.271Z,352
2016-04-05T10:52:26.227Z,356
2016-04-05T10:53:26.182Z,340
2016-04-05T10:54:26.138Z,328
2016-04-05T10:55:26.093Z,336
2016-04-05T10:56:26.050Z,324
2016-04-05T10:57:25.990Z,316
2016-04-05T10:58:25.946Z,308
2016-04-05T10:59:25.918Z,280
2016-04-05T11:00:25.843Z,280
2016-04-05T11:01:25.782Z,272
2016-04-05T11:02:25.785Z,268
2016-04-05T11:03:25.740Z,288
2016-04-05T11:04:25.682Z,320
2016-04-05T11:05:25.637Z,308
2016-04-05T11:06:25.593Z,328
2016-04-05T11:07:25.580Z,332
2016-04-05T11:08:25.511Z,316
2016-04-05T11:09:25.380Z,304
2016-04-05T11:10:25.414Z,304
2016-04-05T11:11:25.385Z,300
2016-04-05T11:12:25.325Z,308
2016-04-05T11:13:25.297Z,332
2016-04-05T11:14:25.253Z,348
2016-04-05T11:15:25.193Z,364
2016-04-05T11:16:25.165Z,348
2016-04-05T11:17:25.167Z,320
2016-04-05T11:18:25.061Z,316
2016-04-05T11:19:25.064Z,356
2016-04-05T11:20:24.972Z,344
2016-04-05T11:21:24.928Z,360
2016-04-05T11:22:24.884Z,352
2016-04-05T11:23:24.840Z,336
2016-04-05T11:24:24.795Z,336
2016-04-05T11:25:24.782Z,348
2016-04-05T11:26:24.722Z,376
2016-04-05T11:27:24.538Z,364
2016-04-05T11:28:24.634Z,344
2016-04-05T11:29:24.575Z,380
2016-04-05T11:30:24.530Z,416
2016-04-05T11:31:24.721Z,396
2016-04-05T11:32:24.458Z,408
2016-04-05T11:33:24.413Z,416
2016-04-05T11:34:24.416Z,416
2016-04-05T11:35:24.294Z,396
2016-04-05T11:36:24.249Z,432
2016-04-05T11:37:24.237Z,452
2016-04-05T11:38:24.192Z,452
2016-04-05T11:39:24.148Z,448
2016-04-05T11:40:24.120Z,436
2016-04-05T11:41:24.075Z,424
2016-04-05T11:42:24.015Z,436
2016-04-05T11:43:23.986Z,408
2016-04-05T11:44:23.926Z,368
2016-04-05T11:45:23.883Z,288
2016-04-05T11:46:23.947Z,248
2016-04-05T11:47:23.795Z,268
2016-04-05T11:48:23.750Z,304
2016-04-05T11:49:23.722Z,312
2016-04-05T11:50:23.661Z,280
2016-04-05T11:51:23.631Z,288
2016-04-05T11:52:23.563Z,320
2016-04-05T11:53:23.494Z,304
2016-04-05T11:54:23.457Z,300
2016-04-05T11:55:23.451Z,328
2016-04-05T11:56:23.352Z,344
2016-04-05T11:57:23.321Z,364
2016-04-05T11:58:23.273Z,376
2016-04-05T11:59:23.209Z,384
2016-04-05T12:00:23.163Z,404
2016-04-05T12:01:23.116Z,412
2016-04-05T12:02:23.102Z,412
2016-04-05T12:03:23.057Z,416
2016-04-05T12:04:22.980Z,412
2016-04-05T12:05:22.950Z,412
2016-04-05T12:06:22.937Z,424
2016-04-05T12:07:22.877Z,424
2016-04-05T12:08:22.816Z,428
2016-04-05T12:09:22.771Z,408
2016-04-05T12:10:22.758Z,416
2016-04-05T12:11:22.682Z,388
2016-04-05T12:12:22.654Z,368
2016-04-05T12:13:22.625Z,376
2016-04-05T12:14:22.565Z,392
2016-04-05T12:15:22.506Z,360
2016-04-05T12:16:22.570Z,368
2016-04-05T12:17:22.433Z,332
2016-04-05T12:18:22.389Z,308
2016-04-05T12:19:22.345Z,324
2016-04-05T12:20:22.285Z,280
2016-04-05T12:21:22.256Z,272
2016-04-05T12:22:22.040Z,236
2016-04-05T12:23:22.199Z,268
2016-04-05T12:24:22.108Z,236
2016-04-05T12:25:22.064Z,288
2016-04-05T12:26:22.035Z,232
2016-04-05T12:27:22.007Z,284
2016-04-05T12:28:21.946Z,256
2016-04-05T12:29:21.888Z,280
2016-04-05T12:30:21.858Z,224
2016-04-05T12:31:21.799Z,252
2016-04-05T12:32:21.770Z,264
2016-04-05T12:33:21.726Z,244
2016-04-05T12:34:21.712Z,248
2016-04-05T12:35:21.653Z,212
2016-04-05T12:36:21.593Z,216
2016-04-05T12:37:21.581Z,216
2016-04-05T12:38:21.490Z,212
2016-04-05T12:39:21.493Z,216
2016-04-05T12:40:21.417Z,224
2016-04-05T12:41:21.403Z,236
2016-04-05T12:42:21.344Z,228
2016-04-05T12:43:21.300Z,252
2016-04-05T12:44:21.271Z,308
2016-04-05T12:45:21.228Z,264
2016-04-05T12:46:21.167Z,256
2016-04-05T12:47:21.107Z,252
2016-04-05T12:48:21.064Z,268
2016-04-05T12:49:21.035Z,224
2016-04-05T12:50:21.022Z,224
2016-04-05T12:51:20.962Z,244
2016-04-05T12:52:20.934Z,244
2016-04-05T12:53:20.889Z,248
2016-04-05T12:54:20.861Z,252
2016-04-05T12:55:20.800Z,244
2016-04-05T12:56:20.741Z,228
2016-04-05T12:57:20.712Z,200
2016-04-05T12:58:20.669Z,212
2016-04-05T12:59:20.624Z,232
2016-04-05T13:00:20.563Z,236
2016-04-05T13:01:20.504Z,188
2016-04-05T13:02:20.476Z,192
2016-04-05T13:03:20.462Z,180
2016-04-05T13:04:20.387Z,188
2016-04-05T13:05:20.374Z,192
2016-04-05T13:06:20.298Z,200
2016-04-05T13:07:19.520Z,204
2016-04-05T13:08:20.211Z,192
2016-04-05T13:09:20.198Z,188
2016-04-05T13:10:19.373Z,172
2016-04-05T13:11:20.062Z,160
2016-04-05T13:12:20.034Z,164
2016-04-05T13:13:19.990Z,172
2016-04-05T13:14:19.962Z,160
2016-04-05T13:15:19.917Z,164
2016-04-05T13:16:19.856Z,156
2016-04-05T13:17:20.032Z,152
2016-04-05T13:18:19.612Z,156
2016-04-05T13:19:19.725Z,152
2016-04-05T13:20:19.680Z,140
2016-04-05T13:21:19.636Z,144
2016-04-05T13:22:19.608Z,144
2016-04-05T13:23:19.548Z,140
2016-04-05T13:24:19.503Z,136
2016-04-05T13:25:19.913Z,128
2016-04-05T13:26:19.415Z,132
2016-04-05T13:27:19.403Z,136
2016-04-05T13:28:19.343Z,136
2016-04-05T13:29:19.126Z,136
2016-04-05T13:30:19.238Z,140
2016-04-05T13:31:19.194Z,140
2016-04-05T13:32:18.994Z,132
2016-04-05T13:33:19.107Z,132
2016-04-05T13:34:19.077Z,132
2016-04-05T13:35:19.033Z,128
2016-04-05T13:36:19.005Z,128
2016-04-05T13:37:18.929Z,120
2016-04-05T13:38:18.932Z,120
2016-04-05T13:39:18.856Z,120
2016-04-05T13:40:18.829Z,116
2016-04-05T13:41:18.768Z,116
2016-04-05T13:42:18.724Z,116
2016-04-05T13:43:18.664Z,116
2016-04-05T13:44:18.651Z,120
2016-04-05T13:45:18.607Z,120
2016-04-05T13:46:18.548Z,120
2016-04-05T13:47:18.520Z,112
2016-04-05T13:48:18.459Z,108
2016-04-05T13:49:18.446Z,108
2016-04-05T13:50:18.355Z,104
2016-04-05T13:51:18.311Z,108
2016-04-05T13:52:18.266Z,104
2016-04-05T13:53:18.207Z,100
2016-04-05T13:54:18.194Z,100
2016-04-05T13:55:18.134Z,96
2016-04-05T13:56:18.105Z,96
2016-04-05T13:57:18.061Z,96
2016-04-05T13:58:18.017Z,92
2016-04-05T13:59:17.988Z,92
2016-04-05T14:00:17.913Z,92
2016-04-05T14:01:17.885Z,88
2016-04-05T14:02:17.825Z,88
2016-04-05T14:03:17.780Z,88
2016-04-05T14:04:17.736Z,88
2016-04-05T14:05:17.692Z,88
2016-04-05T14:06:17.648Z,88
2016-04-05T14:07:17.635Z,88
2016-04-05T14:08:17.560Z,88
2016-04-05T14:09:17.515Z,88
2016-04-05T14:10:17.502Z,88
2016-04-05T14:11:17.427Z,88
2016-04-05T14:12:17.414Z,88
2016-04-05T14:13:17.339Z,84